createdAt,value
2023-01-11T00:11:58.729Z,1.3979933110367893
2023-01-11T00:18:20.951Z,1.4581939799331103
2023-01-11T00:24:44.127Z,1.4280936454849498
2023-01-11T00:36:56.535Z,1.1839464882943145
2023-01-11T00:43:19.812Z,1.0769230769230769
2023-01-11T00:49:43.267Z,0.9163879598662207
2023-01-11T00:56:05.805Z,1.2608695652173914
2023-01-11T01:02:28.277Z,1.842809364548495
2023-01-11T01:08:51.388Z,1.3478260869565217
2023-01-11T01:15:13.937Z,1.4581939799331103
2023-01-11T01:21:37.082Z,1.548494983277592
2023-01-11T01:27:59.740Z,1.6153846153846154
2023-01-11T01:34:21.964Z,1.6923076923076923
2023-01-11T01:40:44.853Z,1.8093645484949832
2023-01-11T01:47:07.753Z,1.9331103678929766
2023-01-11T01:53:30.171Z,1.9230769230769231
2023-01-11T01:59:54.111Z,2.0668896321070234
2023-01-11T02:11:08.876Z,2.31438127090301
2023-01-11T02:17:30.559Z,2.157190635451505
2023-01-11T02:33:35.005Z,2.1471571906354514
2023-01-11T02:39:57.592Z,1.4849498327759196
2023-01-11T02:48:45.905Z,2.317725752508361
2023-01-11T02:55:07.487Z,2.1137123745819397
2023-01-11T03:01:29.423Z,2.1471571906354514
2023-01-11T03:07:52.627Z,2.197324414715719
2023-01-11T03:14:15.119Z,1.7625418060200668
2023-01-11T03:31:40.726Z,1.5250836120401339
2023-01-11T03:38:03.998Z,1.351170568561873
2023-01-11T03:44:27.499Z,1.351170568561873
2023-01-11T03:50:49.951Z,1.5150501672240804
2023-01-11T03:57:11.537Z,1.2508361204013378
2023-01-11T04:03:34.221Z,1.8227424749163879
2023-01-11T04:09:57.523Z,1.5919732441471572
2023-01-11T04:16:18.887Z,1.2040133779264215
2023-01-11T04:22:41.448Z,1.3779264214046822
2023-01-11T04:29:04.049Z,1.2876254180602007
2023-01-11T04:35:26.612Z,1.0668896321070234
2023-01-11T04:41:49.771Z,1.040133779264214
2023-01-11T04:48:12.484Z,1.5050167224080269
2023-01-11T04:54:34.699Z,1.1505016722408026
2023-01-11T05:00:57.594Z,1.0735785953177257
2023-01-11T05:07:20.657Z,1.0334448160535117
2023-01-11T05:13:43.767Z,1.214046822742475
2023-01-11T05:20:06.262Z,0.9531772575250836
2023-01-11T05:26:29.242Z,0.7090301003344481
2023-01-11T05:32:51.220Z,1.0635451505016722
2023-01-11T05:39:43.367Z,1.3010033444816054
2023-01-11T05:50:05.511Z,1.1237458193979932
2023-01-11T05:56:28.431Z,1.2408026755852843
2023-01-11T06:02:51.091Z,1.4849498327759196
2023-01-11T06:16:06.673Z,1.9832775919732442
2023-01-11T06:22:32.516Z,2.1337792642140467
2023-01-11T06:28:57.131Z,1.979933110367893
2023-01-11T06:35:19.302Z,2.0869565217391304
2023-01-11T06:41:41.192Z,2.0234113712374584
2023-01-11T06:48:04.130Z,2.0702341137123748
2023-01-11T06:54:26.659Z,2.301003344481605
2023-01-11T07:00:48.870Z,2.230769230769231
2023-01-11T07:09:43.802Z,2.588628762541806
2023-01-11T07:24:19.482Z,3.588628762541806
2023-01-11T07:30:56.866Z,3.4046822742474916
2023-01-11T07:37:28.845Z,4.3478260869565215
2023-01-11T07:43:53.892Z,4.474916387959866
2023-01-11T08:01:11.241Z,4.591973244147157
2023-01-11T08:07:34.386Z,3.8160535117056855
2023-01-11T08:17:13.794Z,0.13377926421404682
2023-01-11T08:23:37.480Z,0.05351170568561873
2023-01-11T08:30:03.705Z,0.2140468227424749
2023-01-11T08:36:29.317Z,0.3311036789297659
2023-01-11T08:50:04.013Z,0.26421404682274247
2023-01-11T09:08:30.463Z,0.5083612040133779
2023-01-11T09:21:18.504Z,0.5986622073578596
2023-01-11T09:27:43.932Z,0.8193979933110368
2023-01-11T09:34:09.420Z,0.8695652173913043
2023-01-11T09:40:34.073Z,1.0434782608695652
2023-01-11T09:52:23.894Z,2.1070234113712374
2023-01-11T09:58:49.137Z,1.5117056856187292
2023-01-11T10:23:43.823Z,4.68561872909699
2023-01-11T10:32:59.504Z,4.816053511705686
2023-01-11T10:39:25.000Z,5.511705685618729
2023-01-11T10:45:50.868Z,5.735785953177258
2023-01-11T10:52:16.175Z,6.157190635451505
2023-01-11T11:02:32.839Z,6.147157190635451
2023-01-11T11:08:58.150Z,6.040133779264214
2023-01-11T11:20:13.040Z,5.749163879598663
2023-01-11T11:26:38.749Z,6.167224080267559
2023-01-11T11:35:05.585Z,6.956521739130435
2023-01-11T11:41:30.498Z,5.030100334448161
2023-01-11T11:47:56.104Z,4.1003344481605355
2023-01-11T11:54:22.078Z,4.34113712374582
2023-01-11T12:00:46.638Z,2.8729096989966556
2023-01-11T12:11:55.232Z,2.5652173913043477
2023-01-11T12:22:24.634Z,3.0033444816053514
2023-01-11T12:30:33.137Z,2.6722408026755855
2023-01-11T12:36:59.054Z,2.3411371237458196
2023-01-11T12:43:24.250Z,2.036789297658863
2023-01-11T12:56:12.482Z,1.5953177257525084
2023-01-11T13:02:37.797Z,1.6923076923076923
2023-01-11T13:09:03.077Z,1.0769230769230769
2023-01-11T13:26:01.028Z,2.983277591973244
2023-01-11T13:33:08.166Z,3.4046822742474916
2023-01-11T13:44:44.761Z,2.849498327759197
2023-01-11T13:53:21.075Z,2.468227424749164
2023-01-11T14:04:50.182Z,2.1538461538461537
2023-01-11T14:11:14.494Z,2.3411371237458196
2023-01-11T14:23:14.966Z,2.5618729096989967
2023-01-11T14:30:16.318Z,3.016722408026756
2023-01-11T14:36:44.006Z,2.8528428093645486
2023-01-11T14:43:08.960Z,2.9966555183946486
2023-01-11T14:55:20.809Z,2.096989966555184
2023-01-11T15:13:38.435Z,2.3277591973244145
2023-01-11T15:20:06.060Z,1.8461538461538463
2023-01-11T15:26:28.346Z,2.4749163879598663
2023-01-11T15:32:50.460Z,1.9565217391304348
2023-01-11T15:39:14.020Z,1.8327759197324414
2023-01-11T15:45:36.475Z,1.806020066889632
2023-01-11T15:51:59.567Z,1.7993311036789297
2023-01-11T15:58:23.939Z,1.7224080267558528
2023-01-11T16:04:46.862Z,1.6153846153846154
2023-01-11T16:11:09.531Z,1.3076923076923077
2023-01-11T16:17:48.941Z,1.5384615384615385
2023-01-11T16:24:11.805Z,1.2775919732441472
2023-01-11T16:30:34.107Z,1.605351170568562
2023-01-11T16:36:57.216Z,1.9899665551839465
2023-01-11T16:43:19.584Z,2.508361204013378
2023-01-11T16:49:43.014Z,2.9063545150501673
2023-01-11T16:56:05.766Z,3.317725752508361
2023-01-11T17:02:27.818Z,3.3779264214046822
2023-01-11T17:08:50.057Z,3.919732441471572
2023-01-11T17:15:11.944Z,4.418060200668896
2023-01-11T17:21:35.065Z,4.31438127090301
2023-01-11T17:27:57.672Z,4.107023411371237
2023-01-11T17:36:23.380Z,4.364548494983278
2023-01-11T17:42:45.977Z,5.120401337792642
2023-01-11T17:49:08.417Z,5.0602006688963215
2023-01-11T17:55:31.415Z,5.093645484949833
2023-01-11T18:01:53.736Z,4.65886287625418
2023-01-11T18:08:16.463Z,4.133779264214047
2023-01-11T18:14:43.743Z,4.090301003344481
2023-01-11T18:21:06.242Z,3.2642140468227425
2023-01-11T18:29:14.884Z,2.719063545150502
2023-01-11T18:35:55.941Z,3.0702341137123748
2023-01-11T18:43:06.273Z,4.829431438127091
2023-01-11T18:50:58.868Z,7.678929765886288
2023-01-11T18:57:28.508Z,4.234113712374582
2023-01-11T19:04:26.965Z,3.5451505016722407
2023-01-11T19:14:27.668Z,3.311036789297659
2023-01-11T19:21:02.788Z,2.809364548494983
2023-01-11T19:27:35.433Z,3.197324414715719
2023-01-11T19:34:18.372Z,3.290969899665552
2023-01-11T19:50:22.964Z,3.5351170568561874
2023-01-11T19:56:54.808Z,3.551839464882943
2023-01-11T20:03:26.036Z,3.7859531772575252
2023-01-11T20:17:11.218Z,2.702341137123746
2023-01-11T20:24:20.623Z,2.8327759197324416
2023-01-11T20:35:30.376Z,2.739130434782609
2023-01-11T20:43:02.438Z,3.277591973244147
2023-01-11T20:49:45.097Z,2.8461538461538463
2023-01-11T20:56:14.582Z,2.709030100334448
2023-01-11T21:02:45.613Z,2.789297658862876
2023-01-11T21:12:31.815Z,2.5953177257525084
2023-01-11T21:19:09.265Z,1.9030100334448161
2023-01-11T21:25:41.564Z,1.8327759197324414
2023-01-11T21:32:16.292Z,1.5117056856187292
2023-01-11T21:38:49.310Z,1.5719063545150502
2023-01-11T21:45:20.946Z,1.2006688963210703
2023-01-11T21:51:53.964Z,1.0769230769230769
2023-01-11T21:59:07.906Z,1.4481605351170568
2023-01-11T22:05:37.188Z,0.979933110367893
2023-01-11T22:12:14.342Z,0.9832775919732442
2023-01-11T22:18:57.639Z,1.0
2023-01-11T22:25:29.759Z,0.5418060200668896
2023-01-11T22:32:01.467Z,0.6488294314381271
2023-01-11T22:38:32.825Z,0.6622073578595318
2023-01-11T22:54:12.912Z,0.6153846153846154
2023-01-11T23:12:30.271Z,0.7090301003344481
2023-01-11T23:19:22.216Z,0.5117056856187291
2023-01-11T23:26:11.976Z,0.36789297658862874
2023-01-11T23:32:53.756Z,0.4013377926421405
2023-01-11T23:39:32.771Z,0.43478260869565216
2023-01-11T23:46:26.046Z,0.7725752508361204
2023-01-11T23:53:04.866Z,0.5886287625418061
2023-01-11T23:59:59.066Z,1.173913043478261
